Schedule Details


Flight Number: CTN464
Departure: Franjo Tudman (LDZA) at 17:40
Arrival: Zurich (LSZH) at 19:20
Route: PODET DCT KLAGY DCT ERKIR L608 KPT L856 NEGRA

Weather Information
LDZA 080030Z 24001KT CAVOK 19/17 Q1018 NOSIG
LSZH 072350Z 34004KT CAVOK 18/16 Q1021 NOSIG
Schedule Frequency

Route Map